CW9533 Torre Faro Messina IT current weather conditions

sailwx.info

Wind from 013 at 2 knots gusting 5

Air temperature 18.3° C
Dewpoint 12.3° C

Last reported at 2015-May-28 21:48 UTC.
Time now 2015-May-28 22:13 UTC

Location: N 38°16' E 015°39'.
View on Google Maps.

See reports from other nearby stations

  
Tides and Currents Weather Stations Pressure Air Temp Water Temp Dewpoint Dewpoint Depression Visibility Wind Speed Wind Dir Waves Ship Positions
date/time (UTC)wind fromknots sea level pressurealtimeterstation pressurevisibilityair tempwater tempwave heightnotes
2015-May-28 21:48 013 2 gusting 5 18.3
2015-May-28 21:33 013 4 gusting 7 18.3
2015-May-28 21:18 012 3 gusting 7 18.3
2015-May-28 21:03 015 2 gusting 7 18.3
2015-May-28 20:48 015 3 gusting 6 18.3
2015-May-28 20:32 016 4 gusting 8 18.3
2015-May-28 20:17 020 3 gusting 7 18.3
2015-May-28 20:02 021 4 gusting 9 18.3
2015-May-28 19:47 017 5 gusting 9 18.3
2015-May-28 19:32 022 7 gusting 13 18.3
2015-May-28 19:17 028 5 gusting 12 18.3
2015-May-28 19:02 022 2 gusting 8 18.9
2015-May-28 18:47 019 6 gusting 9 18.9
2015-May-28 18:32 015 3 gusting 10 18.9
2015-May-28 18:17 020 3 gusting 10 18.9
2015-May-28 18:02 355 5 gusting 13 18.9
2015-May-28 17:47 015 5 gusting 11 18.9
2015-May-28 17:32 005 5 gusting 9 19.4
2015-May-28 17:17 360 7 gusting 18 19.4
2015-May-28 17:02 017 7 gusting 13 19.4
2015-May-28 16:47 016 5 gusting 11 19.4
2015-May-28 16:17 348 6 gusting 13 20.0
2015-May-28 16:02 028 6 gusting 11 20.0
2015-May-28 15:47 350 5 gusting 13 20.0
2015-May-28 15:32 360 6 gusting 12 20.0
2015-May-28 15:17 044 6 gusting 13 19.4
2015-May-28 14:47 017 5 gusting 12 19.4
2015-May-28 14:32 340 5 gusting 13 19.4
2015-May-28 14:17 005 5 gusting 13 19.4
2015-May-28 14:02 021 7 gusting 15 20.0
2015-May-28 13:47 336 7 gusting 15 19.4
2015-May-28 13:32 349 9 gusting 17 19.4
2015-May-28 13:17 335 10 gusting 16 20.0
2015-May-28 13:02 298 6 gusting 14 20.0
2015-May-28 12:47 349 7 gusting 13 20.6
2015-May-28 12:32 011 5 gusting 13 20.0
2015-May-28 12:17 351 7 gusting 14 20.0
2015-May-28 12:02 348 7 gusting 15 20.6
2015-May-28 11:47 343 8 gusting 14 20.6
2015-May-28 11:32 017 9 gusting 14 20.6
2015-May-28 11:17 343 5 gusting 13 20.6
2015-May-28 11:02 042 8 gusting 13 20.0
2015-May-28 10:47 014 7 gusting 12 20.6
2015-May-28 10:32 042 3 gusting 11 19.4
2015-May-28 10:17 065 1 gusting 10 20.0
2015-May-28 10:02 045 2 gusting 14 20.0
2015-May-28 09:47 336 2 gusting 10 20.0
2015-May-28 09:32 355 6 gusting 11 20.0
2015-May-28 09:17 304 5 gusting 10 19.4
2015-May-28 09:02 301 4 gusting 13 18.9
2015-May-28 08:46 299 4 gusting 8 18.9
2015-May-28 08:31 296 0 gusting 7 18.3
2015-May-28 08:16 306 3 gusting 11 17.8
2015-May-28 08:01 017 1 gusting 6 17.8
2015-May-28 07:46 017 1 gusting 7 17.2
2015-May-28 07:31 015 0 gusting 5 16.1
2015-May-28 07:16 014 1 gusting 5 15.6
2015-May-28 07:01 014 1 gusting 5 15.6
2015-May-28 06:46 014 0 gusting 2 15.6
2015-May-28 06:31 014 1 gusting 4 15.6
2015-May-28 06:16 005 2 gusting 6 15.6
2015-May-28 06:01 005 3 gusting 6 16.1
2015-May-28 05:46 342 0 gusting 4 16.7
2015-May-28 05:31 342 2 gusting 7 17.2
2015-May-28 05:16 338 0 gusting 3 17.2
2015-May-28 05:01 339 17.2
2015-May-28 04:46 339 17.2
2015-May-28 04:31 339 17.2
2015-May-28 04:16 338 17.8
2015-May-28 04:01 338 17.2
2015-May-28 03:46 338 17.2
2015-May-28 03:31 338 0 gusting 3 17.2
2015-May-28 03:16 338 2 gusting 6 17.2
2015-May-28 03:01 338 1 gusting 3 17.2
2015-May-28 02:46 338 17.2
2015-May-28 02:31 339 17.8
2015-May-28 02:16 341 5 gusting 11 18.3
2015-May-28 02:01 350 2 gusting 6 18.3
2015-May-28 01:46 350 4 gusting 7 18.3
2015-May-28 01:31 350 3 gusting 6 18.3
2015-May-28 01:16 350 3 gusting 6 18.3
2015-May-28 01:01 350 0 gusting 5 18.3
2015-May-28 00:46 350 4 gusting 7 18.3
2015-May-28 00:31 349 2 gusting 6 18.3
2015-May-28 00:16 348 1 gusting 7 18.9
2015-May-28 00:01 348 4 gusting 7 18.3
2015-May-27 23:45 355 3 gusting 6 18.3
2015-May-27 23:30 005 3 gusting 6 18.3
2015-May-27 23:15 005 2 gusting 7 18.3
2015-May-27 23:00 005 2 gusting 7 18.3
2015-May-27 22:45 005 4 gusting 7 18.3
2015-May-27 22:30 009 2 gusting 6 18.3
2015-May-27 22:15 009 0 gusting 6 18.3
2015-May-27 22:00 005 2 gusting 6 18.3
2015-May-27 21:45 005 2 gusting 6 18.3
2015-May-27 21:30 005 4 gusting 8 18.3
2015-May-27 21:15 360 2 gusting 8 18.3
2015-May-27 21:00 355 3 gusting 8 18.3
2015-May-27 20:45 350 5 gusting 9 18.3
2015-May-27 20:30 345 4 gusting 9 18.3
2015-May-27 20:15 337 4 gusting 9 18.3
2015-May-27 20:00 350 4 gusting 10 18.9
2015-May-27 19:45 344 5 gusting 11 18.9
2015-May-27 19:30 355 5 gusting 12 18.9
2015-May-27 19:15 005 8 gusting 13 18.9
2015-May-27 19:00 009 6 gusting 11 18.9
2015-May-27 18:45 360 6 gusting 11 18.9
2015-May-27 18:30 343 8 gusting 13 18.9
2015-May-27 18:15 011 6 gusting 13 18.9
2015-May-27 18:00 360 7 gusting 13 18.9
2015-May-27 17:45 009 5 gusting 12 18.9
2015-May-27 17:30 022 6 gusting 13 18.9
2015-May-27 17:15 355 3 gusting 11 18.9
2015-May-27 17:00 013 7 gusting 13 19.4
2015-May-27 16:45 355 9 gusting 19 19.4
2015-May-27 16:30 009 6 gusting 14 19.4
2015-May-27 16:15 338 8 gusting 16 20.0
2015-May-27 16:00 336 7 gusting 16 20.0
2015-May-27 15:45 019 8 gusting 16 20.0
2015-May-27 15:30 350 6 gusting 13 20.6
2015-May-27 15:15 308 6 gusting 13 20.6
2015-May-27 15:00 355 6 gusting 15 20.0
2015-May-27 14:45 015 6 gusting 14 20.6
2015-May-27 14:30 360 4 gusting 13 20.6
2015-May-27 14:15 360 6 gusting 13 20.6
2015-May-27 13:45 310 8 gusting 17 20.0
2015-May-27 13:30 331 6 gusting 15 20.6
2015-May-27 13:15 318 6 gusting 14 20.0
2015-May-27 13:00 298 6 gusting 11 20.0
2015-May-27 12:45 314 8 gusting 14 19.4
2015-May-27 12:30 349 7 gusting 12 20.0
2015-May-27 12:15 017 5 gusting 11 20.0
2015-May-27 12:00 019 8 gusting 15 20.0
2015-May-27 11:45 022 6 gusting 10 19.4
2015-May-27 11:30 013 6 gusting 15 19.4
2015-May-27 11:15 345 5 gusting 12 19.4
2015-May-27 11:00 355 4 gusting 11 19.4
2015-May-27 10:45 344 6 gusting 11 18.9
2015-May-27 10:30 344 8 gusting 13 18.9
2015-May-27 10:15 005 7 gusting 13 18.9
2015-May-27 10:00 012 6 gusting 11 19.4
2015-May-27 09:45 022 4 gusting 9 19.4
2015-May-27 09:29 015 2 gusting 12 18.9
2015-May-27 09:14 031 3 gusting 10 18.9
2015-May-27 08:59 039 4 gusting 8 18.3
2015-May-27 08:44 027 3 gusting 13 17.8
2015-May-27 08:29 036 5 gusting 9 16.7
2015-May-27 08:14 066 5 gusting 11 16.1
2015-May-27 07:59 078 4 gusting 8 16.1
2015-May-27 07:44 068 5 gusting 11 15.6
2015-May-27 07:29 074 5 gusting 10 15.6
2015-May-27 07:14 086 6 gusting 15 15.6
2015-May-27 06:59 073 1 gusting 7 16.1
2015-May-27 06:44 067 3 gusting 7 16.1
2015-May-27 06:29 066 2 gusting 6 16.1
2015-May-27 06:14 065 0 gusting 6 16.1
2015-May-27 05:59 067 1 gusting 3 15.6
2015-May-27 05:44 069 2 gusting 6 15.6
2015-May-27 05:29 067 2 gusting 6 15.6
2015-May-27 05:14 067 3 gusting 7 15.6
2015-May-27 04:59 067 0 gusting 4 15.6
2015-May-27 04:44 071 4 gusting 8 15.6
2015-May-27 04:29 083 5 gusting 13 16.1
2015-May-27 04:14 009 3 gusting 7 16.1
2015-May-27 03:59 348 3 gusting 6 16.1
2015-May-27 03:44 349 2 gusting 6 16.1
2015-May-27 03:29 348 3 gusting 9 16.1
2015-May-27 03:14 349 4 gusting 8 16.7
2015-May-27 02:59 351 2 gusting 7 16.7
2015-May-27 02:44 351 4 gusting 10 16.7
2015-May-27 02:29 355 4 gusting 7 16.7
2015-May-27 02:14 350 6 gusting 11 16.7
2015-May-27 01:59 028 3 gusting 7 16.7
2015-May-27 01:44 027 3 gusting 8 16.7
2015-May-27 01:29 027 3 gusting 8 16.7
2015-May-27 01:14 031 6 gusting 10 16.7
2015-May-27 00:59 035 6 gusting 8 16.1
2015-May-27 00:44 034 4 gusting 9 16.7
2015-May-27 00:29 032 3 gusting 7 16.7
2015-May-27 00:14 031 5 gusting 8 16.7
2015-May-26 23:59 031 6 gusting 11 16.7
2015-May-26 23:43 027 6 gusting 9 16.1
2015-May-26 23:28 026 4 gusting 9 16.1
2015-May-26 23:13 019 6 gusting 11 16.1
2015-May-26 22:58 009 4 gusting 8 16.1
2015-May-26 22:43 009 3 gusting 8 16.1
2015-May-26 22:28 360 6 gusting 10 16.1
2015-May-26 22:13 360 5 gusting 10 16.1